Terminal Aerodrome Forecast
Issued by NWS

Home | Current Version | Previous Version | Graphics & Text | Print | Product List | Glossary On
Versions: 1 2 3 4 5 6 7 8 9 10 11 12 13
000
FTUS45 KGGW 230520
TAFOLF
TAF
KOLF 230520Z 2306/2406 08013KT P6SM -RA OVC040
     FM231000 08017KT 6SM -RA OVC015
     FM240000 08008KT P6SM -RA OVC004=

USA.gov is the U.S. government's official web portal to all federal, state and local government web resources and services.